sensor_id;sensor_type;location;lat;lon;timestamp;P1;durP1;ratioP1;P2;durP2;ratioP2
66175;SDS011;52977;44.816;20.538;2023-10-19T00:00:40;14.13;;;6.55;;
66175;SDS011;52977;44.816;20.538;2023-10-19T00:03:16;13.30;;;6.78;;
66175;SDS011;52977;44.816;20.538;2023-10-19T00:05:44;12.98;;;6.65;;
66175;SDS011;52977;44.816;20.538;2023-10-19T00:08:12;12.43;;;6.57;;
66175;SDS011;52977;44.816;20.538;2023-10-19T00:10:39;14.10;;;6.88;;
66175;SDS011;52977;44.816;20.538;2023-10-19T00:13:08;13.30;;;6.78;;
66175;SDS011;52977;44.816;20.538;2023-10-19T00:15:41;14.65;;;7.25;;
66175;SDS011;52977;44.816;20.538;2023-10-19T00:18:17;13.05;;;7.03;;
66175;SDS011;52977;44.816;20.538;2023-10-19T00:20:44;13.48;;;6.30;;
66175;SDS011;52977;44.816;20.538;2023-10-19T00:23:14;12.95;;;6.25;;
66175;SDS011;52977;44.816;20.538;2023-10-19T00:25:44;12.90;;;6.90;;
66175;SDS011;52977;44.816;20.538;2023-10-19T00:28:17;11.23;;;6.20;;
66175;SDS011;52977;44.816;20.538;2023-10-19T00:30:44;16.58;;;6.85;;
66175;SDS011;52977;44.816;20.538;2023-10-19T00:33:11;14.07;;;7.07;;
66175;SDS011;52977;44.816;20.538;2023-10-19T00:35:48;12.02;;;6.75;;
66175;SDS011;52977;44.816;20.538;2023-10-19T00:38:37;13.32;;;6.53;;
66175;SDS011;52977;44.816;20.538;2023-10-19T00:41:03;14.82;;;6.57;;
66175;SDS011;52977;44.816;20.538;2023-10-19T00:43:38;12.77;;;6.30;;
66175;SDS011;52977;44.816;20.538;2023-10-19T00:46:15;17.42;;;6.78;;
66175;SDS011;52977;44.816;20.538;2023-10-19T00:48:46;15.05;;;7.00;;
66175;SDS011;52977;44.816;20.538;2023-10-19T00:51:25;13.57;;;6.97;;
66175;SDS011;52977;44.816;20.538;2023-10-19T00:54:12;15.00;;;7.10;;
66175;SDS011;52977;44.816;20.538;2023-10-19T00:56:42;13.57;;;7.18;;
66175;SDS011;52977;44.816;20.538;2023-10-19T00:59:14;13.65;;;7.18;;
66175;SDS011;52977;44.816;20.538;2023-10-19T01:01:50;14.00;;;7.00;;
66175;SDS011;52977;44.816;20.538;2023-10-19T01:04:23;15.13;;;7.35;;
66175;SDS011;52977;44.816;20.538;2023-10-19T01:06:49;15.57;;;8.07;;
66175;SDS011;52977;44.816;20.538;2023-10-19T01:09:34;13.07;;;5.97;;
66175;SDS011;52977;44.816;20.538;2023-10-19T01:12:02;14.93;;;6.38;;
66175;SDS011;52977;44.816;20.538;2023-10-19T01:15:07;13.20;;;7.22;;
66175;SDS011;52977;44.816;20.538;2023-10-19T01:17:50;15.70;;;7.53;;
66175;SDS011;52977;44.816;20.538;2023-10-19T01:20:28;12.77;;;6.78;;
66175;SDS011;52977;44.816;20.538;2023-10-19T01:22:55;15.55;;;6.97;;
66175;SDS011;52977;44.816;20.538;2023-10-19T01:25:53;15.13;;;6.72;;
66175;SDS011;52977;44.816;20.538;2023-10-19T01:28:30;12.68;;;6.50;;
66175;SDS011;52977;44.816;20.538;2023-10-19T01:31:10;14.27;;;6.57;;
66175;SDS011;52977;44.816;20.538;2023-10-19T01:33:48;15.02;;;6.57;;
66175;SDS011;52977;44.816;20.538;2023-10-19T01:36:14;12.65;;;6.57;;
66175;SDS011;52977;44.816;20.538;2023-10-19T01:38:41;10.15;;;5.68;;
66175;SDS011;52977;44.816;20.538;2023-10-19T01:41:08;16.52;;;6.72;;
66175;SDS011;52977;44.816;20.538;2023-10-19T01:43:48;11.02;;;5.78;;
66175;SDS011;52977;44.816;20.538;2023-10-19T01:46:16;13.48;;;6.50;;
66175;SDS011;52977;44.816;20.538;2023-10-19T01:48:49;12.63;;;6.25;;
66175;SDS011;52977;44.816;20.538;2023-10-19T01:51:24;13.50;;;6.30;;
66175;SDS011;52977;44.816;20.538;2023-10-19T01:53:52;14.13;;;6.13;;
66175;SDS011;52977;44.816;20.538;2023-10-19T01:56:21;15.10;;;7.13;;
66175;SDS011;52977;44.816;20.538;2023-10-19T01:58:48;12.82;;;6.78;;
66175;SDS011;52977;44.816;20.538;2023-10-19T02:01:16;11.82;;;6.40;;
66175;SDS011;52977;44.816;20.538;2023-10-19T02:03:47;13.75;;;6.70;;
66175;SDS011;52977;44.816;20.538;2023-10-19T02:06:19;13.88;;;6.60;;
66175;SDS011;52977;44.816;20.538;2023-10-19T02:08:48;10.77;;;6.30;;
66175;SDS011;52977;44.816;20.538;2023-10-19T02:11:22;14.60;;;6.55;;
66175;SDS011;52977;44.816;20.538;2023-10-19T02:13:50;14.05;;;6.53;;
66175;SDS011;52977;44.816;20.538;2023-10-19T02:16:18;14.32;;;6.72;;
66175;SDS011;52977;44.816;20.538;2023-10-19T02:18:49;11.90;;;6.23;;
66175;SDS011;52977;44.816;20.538;2023-10-19T02:21:16;13.18;;;6.00;;
66175;SDS011;52977;44.816;20.538;2023-10-19T02:23:49;14.80;;;5.95;;
66175;SDS011;52977;44.816;20.538;2023-10-19T02:26:19;11.75;;;6.00;;
66175;SDS011;52977;44.816;20.538;2023-10-19T02:28:49;10.23;;;5.72;;
66175;SDS011;52977;44.816;20.538;2023-10-19T02:31:17;14.05;;;5.85;;
66175;SDS011;52977;44.816;20.538;2023-10-19T02:33:46;9.90;;;5.60;;
66175;SDS011;52977;44.816;20.538;2023-10-19T02:36:28;11.13;;;5.72;;
66175;SDS011;52977;44.816;20.538;2023-10-19T02:38:58;16.20;;;6.45;;
66175;SDS011;52977;44.816;20.538;2023-10-19T02:41:50;11.90;;;5.95;;
66175;SDS011;52977;44.816;20.538;2023-10-19T02:44:20;10.30;;;5.75;;
66175;SDS011;52977;44.816;20.538;2023-10-19T02:46:52;10.25;;;5.80;;
66175;SDS011;52977;44.816;20.538;2023-10-19T02:49:24;16.75;;;6.15;;
66175;SDS011;52977;44.816;20.538;2023-10-19T02:51:52;11.02;;;5.60;;
66175;SDS011;52977;44.816;20.538;2023-10-19T02:54:20;11.95;;;5.88;;
66175;SDS011;52977;44.816;20.538;2023-10-19T02:56:51;11.90;;;5.55;;
66175;SDS011;52977;44.816;20.538;2023-10-19T02:59:20;13.88;;;6.18;;
66175;SDS011;52977;44.816;20.538;2023-10-19T03:01:51;9.65;;;4.82;;
66175;SDS011;52977;44.816;20.538;2023-10-19T03:04:27;10.75;;;5.63;;
66175;SDS011;52977;44.816;20.538;2023-10-19T03:06:55;12.00;;;5.10;;
66175;SDS011;52977;44.816;20.538;2023-10-19T03:09:24;9.98;;;4.65;;
66175;SDS011;52977;44.816;20.538;2023-10-19T03:11:52;11.85;;;5.50;;
66175;SDS011;52977;44.816;20.538;2023-10-19T03:14:23;12.88;;;5.30;;
66175;SDS011;52977;44.816;20.538;2023-10-19T03:16:51;10.57;;;4.55;;
66175;SDS011;52977;44.816;20.538;2023-10-19T03:19:20;10.65;;;4.90;;
66175;SDS011;52977;44.816;20.538;2023-10-19T03:21:47;8.88;;;4.82;;
66175;SDS011;52977;44.816;20.538;2023-10-19T03:24:17;10.13;;;5.30;;
66175;SDS011;52977;44.816;20.538;2023-10-19T03:29:50;12.80;;;5.60;;
66175;SDS011;52977;44.816;20.538;2023-10-19T03:32:21;9.02;;;5.10;;
66175;SDS011;52977;44.816;20.538;2023-10-19T03:35:01;10.70;;;5.70;;
66175;SDS011;52977;44.816;20.538;2023-10-19T03:37:29;12.75;;;5.15;;
66175;SDS011;52977;44.816;20.538;2023-10-19T03:39:56;8.98;;;4.65;;
66175;SDS011;52977;44.816;20.538;2023-10-19T03:42:23;11.93;;;5.22;;
66175;SDS011;52977;44.816;20.538;2023-10-19T03:45:08;12.13;;;5.32;;
66175;SDS011;52977;44.816;20.538;2023-10-19T03:47:39;11.27;;;5.40;;
66175;SDS011;52977;44.816;20.538;2023-10-19T03:50:05;11.80;;;5.38;;
66175;SDS011;52977;44.816;20.538;2023-10-19T03:52:40;10.95;;;5.50;;
66175;SDS011;52977;44.816;20.538;2023-10-19T03:55:07;10.38;;;4.78;;
66175;SDS011;52977;44.816;20.538;2023-10-19T03:57:48;12.77;;;5.45;;
66175;SDS011;52977;44.816;20.538;2023-10-19T04:00:20;12.20;;;5.03;;
66175;SDS011;52977;44.816;20.538;2023-10-19T04:02:54;10.88;;;5.40;;
66175;SDS011;52977;44.816;20.538;2023-10-19T04:05:21;12.50;;;5.07;;
66175;SDS011;52977;44.816;20.538;2023-10-19T04:07:48;11.20;;;5.00;;
66175;SDS011;52977;44.816;20.538;2023-10-19T04:10:37;10.02;;;5.47;;
66175;SDS011;52977;44.816;20.538;2023-10-19T04:13:02;12.27;;;5.35;;
66175;SDS011;52977;44.816;20.538;2023-10-19T04:15:30;10.23;;;5.13;;
66175;SDS011;52977;44.816;20.538;2023-10-19T04:17:59;9.13;;;4.78;;
66175;SDS011;52977;44.816;20.538;2023-10-19T04:20:26;7.90;;;5.13;;
66175;SDS011;52977;44.816;20.538;2023-10-19T04:22:58;10.25;;;5.65;;
66175;SDS011;52977;44.816;20.538;2023-10-19T04:25:31;10.10;;;4.90;;
66175;SDS011;52977;44.816;20.538;2023-10-19T04:27:57;11.70;;;5.18;;
66175;SDS011;52977;44.816;20.538;2023-10-19T04:30:23;10.02;;;5.70;;
66175;SDS011;52977;44.816;20.538;2023-10-19T04:32:53;10.88;;;5.40;;
66175;SDS011;52977;44.816;20.538;2023-10-19T04:35:21;13.75;;;5.72;;
66175;SDS011;52977;44.816;20.538;2023-10-19T04:37:50;12.40;;;5.32;;
66175;SDS011;52977;44.816;20.538;2023-10-19T04:40:20;9.68;;;5.00;;
66175;SDS011;52977;44.816;20.538;2023-10-19T04:42:49;11.80;;;5.95;;
66175;SDS011;52977;44.816;20.538;2023-10-19T04:45:17;10.27;;;5.43;;
66175;SDS011;52977;44.816;20.538;2023-10-19T04:47:43;10.82;;;5.78;;
66175;SDS011;52977;44.816;20.538;2023-10-19T04:50:11;11.45;;;5.63;;
66175;SDS011;52977;44.816;20.538;2023-10-19T04:52:37;10.20;;;5.47;;
66175;SDS011;52977;44.816;20.538;2023-10-19T04:55:04;10.95;;;5.78;;
66175;SDS011;52977;44.816;20.538;2023-10-19T04:57:31;11.50;;;5.85;;
66175;SDS011;52977;44.816;20.538;2023-10-19T04:59:58;12.30;;;5.78;;
66175;SDS011;52977;44.816;20.538;2023-10-19T05:02:24;13.73;;;5.60;;
66175;SDS011;52977;44.816;20.538;2023-10-19T05:04:50;11.00;;;4.85;;
66175;SDS011;52977;44.816;20.538;2023-10-19T05:07:16;11.50;;;5.00;;
66175;SDS011;52977;44.816;20.538;2023-10-19T05:09:45;9.95;;;5.20;;
66175;SDS011;52977;44.816;20.538;2023-10-19T05:12:13;12.88;;;5.72;;
66175;SDS011;52977;44.816;20.538;2023-10-19T05:14:40;10.95;;;5.68;;
66175;SDS011;52977;44.816;20.538;2023-10-19T05:17:08;12.48;;;5.57;;
66175;SDS011;52977;44.816;20.538;2023-10-19T05:19:35;11.23;;;5.15;;
66175;SDS011;52977;44.816;20.538;2023-10-19T05:22:04;10.70;;;5.20;;
66175;SDS011;52977;44.816;20.538;2023-10-19T05:24:34;12.07;;;5.32;;
66175;SDS011;52977;44.816;20.538;2023-10-19T05:27:01;12.30;;;5.82;;
66175;SDS011;52977;44.816;20.538;2023-10-19T05:29:30;9.60;;;5.03;;
66175;SDS011;52977;44.816;20.538;2023-10-19T05:31:58;11.23;;;5.82;;
66175;SDS011;52977;44.816;20.538;2023-10-19T05:34:26;12.25;;;5.22;;
66175;SDS011;52977;44.816;20.538;2023-10-19T05:36:52;13.05;;;5.60;;
66175;SDS011;52977;44.816;20.538;2023-10-19T05:39:19;10.65;;;5.55;;
66175;SDS011;52977;44.816;20.538;2023-10-19T05:41:53;11.50;;;6.05;;
66175;SDS011;52977;44.816;20.538;2023-10-19T05:44:19;10.60;;;4.90;;
66175;SDS011;52977;44.816;20.538;2023-10-19T05:46:45;10.20;;;5.07;;
66175;SDS011;52977;44.816;20.538;2023-10-19T05:49:14;10.02;;;4.95;;
66175;SDS011;52977;44.816;20.538;2023-10-19T05:51:42;12.15;;;5.57;;
66175;SDS011;52977;44.816;20.538;2023-10-19T05:54:10;12.50;;;5.40;;
66175;SDS011;52977;44.816;20.538;2023-10-19T05:56:36;10.60;;;5.13;;
66175;SDS011;52977;44.816;20.538;2023-10-19T05:59:02;8.55;;;4.72;;
66175;SDS011;52977;44.816;20.538;2023-10-19T06:01:28;10.93;;;5.40;;
66175;SDS011;52977;44.816;20.538;2023-10-19T06:03:54;14.20;;;5.68;;
66175;SDS011;52977;44.816;20.538;2023-10-19T06:06:20;9.25;;;4.95;;
66175;SDS011;52977;44.816;20.538;2023-10-19T06:08:47;9.68;;;4.72;;
66175;SDS011;52977;44.816;20.538;2023-10-19T06:11:13;9.50;;;5.18;;
66175;SDS011;52977;44.816;20.538;2023-10-19T06:13:39;8.88;;;5.00;;
66175;SDS011;52977;44.816;20.538;2023-10-19T06:16:05;11.80;;;5.70;;
66175;SDS011;52977;44.816;20.538;2023-10-19T06:18:32;10.77;;;4.75;;
66175;SDS011;52977;44.816;20.538;2023-10-19T06:20:58;10.23;;;4.95;;
66175;SDS011;52977;44.816;20.538;2023-10-19T06:23:24;9.18;;;5.35;;
66175;SDS011;52977;44.816;20.538;2023-10-19T06:25:50;12.35;;;5.03;;
66175;SDS011;52977;44.816;20.538;2023-10-19T06:28:17;9.60;;;4.63;;
66175;SDS011;52977;44.816;20.538;2023-10-19T06:30:43;10.35;;;5.20;;
66175;SDS011;52977;44.816;20.538;2023-10-19T06:33:10;11.05;;;5.82;;
66175;SDS011;52977;44.816;20.538;2023-10-19T06:35:36;15.05;;;6.28;;
66175;SDS011;52977;44.816;20.538;2023-10-19T06:38:03;12.55;;;6.72;;
66175;SDS011;52977;44.816;20.538;2023-10-19T06:40:29;16.48;;;7.82;;
66175;SDS011;52977;44.816;20.538;2023-10-19T06:42:56;22.15;;;8.98;;
66175;SDS011;52977;44.816;20.538;2023-10-19T06:45:23;12.27;;;6.50;;
66175;SDS011;52977;44.816;20.538;2023-10-19T06:47:50;12.40;;;5.38;;
66175;SDS011;52977;44.816;20.538;2023-10-19T06:50:19;10.45;;;4.95;;
66175;SDS011;52977;44.816;20.538;2023-10-19T06:52:46;12.30;;;5.50;;
66175;SDS011;52977;44.816;20.538;2023-10-19T06:55:32;9.40;;;4.63;;
66175;SDS011;52977;44.816;20.538;2023-10-19T06:57:58;10.88;;;5.47;;
66175;SDS011;52977;44.816;20.538;2023-10-19T07:00:25;8.77;;;4.60;;
66175;SDS011;52977;44.816;20.538;2023-10-19T07:02:55;10.18;;;4.75;;
66175;SDS011;52977;44.816;20.538;2023-10-19T07:05:23;16.42;;;6.68;;
66175;SDS011;52977;44.816;20.538;2023-10-19T07:07:50;14.50;;;7.05;;
66175;SDS011;52977;44.816;20.538;2023-10-19T07:10:20;15.90;;;8.57;;
66175;SDS011;52977;44.816;20.538;2023-10-19T07:12:47;18.25;;;8.10;;
66175;SDS011;52977;44.816;20.538;2023-10-19T07:15:16;18.67;;;10.27;;
66175;SDS011;52977;44.816;20.538;2023-10-19T07:17:46;24.20;;;11.35;;
66175;SDS011;52977;44.816;20.538;2023-10-19T07:20:13;18.33;;;9.55;;
66175;SDS011;52977;44.816;20.538;2023-10-19T07:23:02;17.08;;;6.88;;
66175;SDS011;52977;44.816;20.538;2023-10-19T07:25:36;14.27;;;6.32;;
66175;SDS011;52977;44.816;20.538;2023-10-19T07:28:13;12.15;;;5.93;;
66175;SDS011;52977;44.816;20.538;2023-10-19T07:30:40;13.85;;;6.18;;
66175;SDS011;52977;44.816;20.538;2023-10-19T07:33:07;15.27;;;6.78;;
66175;SDS011;52977;44.816;20.538;2023-10-19T07:35:38;14.48;;;7.47;;
66175;SDS011;52977;44.816;20.538;2023-10-19T07:38:04;14.38;;;6.55;;
66175;SDS011;52977;44.816;20.538;2023-10-19T07:40:36;12.57;;;6.20;;
66175;SDS011;52977;44.816;20.538;2023-10-19T07:43:02;13.07;;;5.70;;
66175;SDS011;52977;44.816;20.538;2023-10-19T07:45:29;12.32;;;5.72;;
66175;SDS011;52977;44.816;20.538;2023-10-19T07:47:57;11.40;;;5.38;;
66175;SDS011;52977;44.816;20.538;2023-10-19T07:50:32;13.23;;;5.35;;
66175;SDS011;52977;44.816;20.538;2023-10-19T07:53:02;9.23;;;5.45;;
66175;SDS011;52977;44.816;20.538;2023-10-19T07:55:28;9.93;;;5.30;;
66175;SDS011;52977;44.816;20.538;2023-10-19T07:57:57;12.43;;;5.40;;
66175;SDS011;52977;44.816;20.538;2023-10-19T08:00:29;9.27;;;5.10;;
66175;SDS011;52977;44.816;20.538;2023-10-19T08:02:55;9.88;;;5.25;;
66175;SDS011;52977;44.816;20.538;2023-10-19T08:05:21;9.27;;;4.93;;
66175;SDS011;52977;44.816;20.538;2023-10-19T08:07:47;9.50;;;4.72;;
66175;SDS011;52977;44.816;20.538;2023-10-19T08:10:15;10.30;;;5.20;;
66175;SDS011;52977;44.816;20.538;2023-10-19T08:12:43;9.60;;;5.28;;
66175;SDS011;52977;44.816;20.538;2023-10-19T08:15:13;11.77;;;5.23;;
66175;SDS011;52977;44.816;20.538;2023-10-19T08:17:41;10.65;;;4.90;;
66175;SDS011;52977;44.816;20.538;2023-10-19T08:20:09;11.05;;;5.20;;
66175;SDS011;52977;44.816;20.538;2023-10-19T08:22:59;10.68;;;5.10;;
66175;SDS011;52977;44.816;20.538;2023-10-19T08:25:27;11.20;;;5.13;;
66175;SDS011;52977;44.816;20.538;2023-10-19T08:27:53;11.65;;;5.03;;
66175;SDS011;52977;44.816;20.538;2023-10-19T08:30:23;9.63;;;4.88;;
66175;SDS011;52977;44.816;20.538;2023-10-19T08:32:50;11.50;;;4.45;;
66175;SDS011;52977;44.816;20.538;2023-10-19T08:35:18;13.35;;;5.13;;
66175;SDS011;52977;44.816;20.538;2023-10-19T08:37:53;8.73;;;5.03;;
66175;SDS011;52977;44.816;20.538;2023-10-19T08:40:19;10.65;;;5.30;;
66175;SDS011;52977;44.816;20.538;2023-10-19T08:42:47;11.65;;;5.13;;
66175;SDS011;52977;44.816;20.538;2023-10-19T08:45:14;8.40;;;4.90;;
66175;SDS011;52977;44.816;20.538;2023-10-19T08:50:23;18.35;;;5.03;;
66175;SDS011;52977;44.816;20.538;2023-10-19T08:52:52;12.38;;;4.85;;
66175;SDS011;52977;44.816;20.538;2023-10-19T08:55:19;11.75;;;5.10;;
66175;SDS011;52977;44.816;20.538;2023-10-19T08:57:48;9.02;;;4.97;;
66175;SDS011;52977;44.816;20.538;2023-10-19T09:00:16;10.07;;;5.50;;
66175;SDS011;52977;44.816;20.538;2023-10-19T09:02:47;11.48;;;5.18;;
66175;SDS011;52977;44.816;20.538;2023-10-19T09:05:14;10.82;;;4.88;;
66175;SDS011;52977;44.816;20.538;2023-10-19T09:07:49;15.07;;;4.80;;
66175;SDS011;52977;44.816;20.538;2023-10-19T09:10:24;9.52;;;4.63;;
66175;SDS011;52977;44.816;20.538;2023-10-19T09:15:28;8.20;;;4.60;;
66175;SDS011;52977;44.816;20.538;2023-10-19T09:18:17;10.07;;;5.43;;
66175;SDS011;52977;44.816;20.538;2023-10-19T09:20:45;8.25;;;4.32;;
66175;SDS011;52977;44.816;20.538;2023-10-19T09:23:22;10.55;;;5.18;;
66175;SDS011;52977;44.816;20.538;2023-10-19T09:25:49;14.70;;;5.25;;
66175;SDS011;52977;44.816;20.538;2023-10-19T09:28:15;9.93;;;4.90;;
66175;SDS011;52977;44.816;20.538;2023-10-19T09:30:43;10.93;;;4.45;;
66175;SDS011;52977;44.816;20.538;2023-10-19T09:33:09;9.20;;;4.40;;
66175;SDS011;52977;44.816;20.538;2023-10-19T09:35:35;6.28;;;4.30;;
66175;SDS011;52977;44.816;20.538;2023-10-19T09:38:09;8.77;;;4.00;;
66175;SDS011;52977;44.816;20.538;2023-10-19T09:40:35;7.90;;;3.55;;
66175;SDS011;52977;44.816;20.538;2023-10-19T09:43:04;8.70;;;3.33;;
66175;SDS011;52977;44.816;20.538;2023-10-19T09:45:36;8.70;;;3.65;;
66175;SDS011;52977;44.816;20.538;2023-10-19T09:48:07;9.65;;;3.58;;
66175;SDS011;52977;44.816;20.538;2023-10-19T09:50:34;13.95;;;4.00;;
66175;SDS011;52977;44.816;20.538;2023-10-19T09:53:01;7.82;;;3.72;;
66175;SDS011;52977;44.816;20.538;2023-10-19T09:55:32;10.13;;;3.92;;
66175;SDS011;52977;44.816;20.538;2023-10-19T09:58:06;8.02;;;4.43;;
66175;SDS011;52977;44.816;20.538;2023-10-19T10:00:47;8.02;;;3.80;;
66175;SDS011;52977;44.816;20.538;2023-10-19T10:06:28;6.53;;;3.65;;
66175;SDS011;52977;44.816;20.538;2023-10-19T10:09:16;8.90;;;3.78;;
66175;SDS011;52977;44.816;20.538;2023-10-19T10:11:48;8.07;;;3.67;;
66175;SDS011;52977;44.816;20.538;2023-10-19T10:14:25;7.45;;;3.70;;
66175;SDS011;52977;44.816;20.538;2023-10-19T10:17:03;8.80;;;4.28;;
66175;SDS011;52977;44.816;20.538;2023-10-19T10:19:49;7.82;;;3.97;;
66175;SDS011;52977;44.816;20.538;2023-10-19T10:22:17;8.23;;;3.75;;
66175;SDS011;52977;44.816;20.538;2023-10-19T10:24:47;7.03;;;3.70;;
66175;SDS011;52977;44.816;20.538;2023-10-19T10:27:49;7.68;;;3.67;;
66175;SDS011;52977;44.816;20.538;2023-10-19T10:30:17;7.47;;;3.60;;
66175;SDS011;52977;44.816;20.538;2023-10-19T10:32:47;13.15;;;4.00;;
66175;SDS011;52977;44.816;20.538;2023-10-19T10:38:07;7.78;;;3.67;;
66175;SDS011;52977;44.816;20.538;2023-10-19T10:40:44;7.20;;;3.60;;
66175;SDS011;52977;44.816;20.538;2023-10-19T10:43:15;8.73;;;4.30;;
66175;SDS011;52977;44.816;20.538;2023-10-19T10:45:42;8.77;;;3.92;;
66175;SDS011;52977;44.816;20.538;2023-10-19T10:48:13;6.15;;;3.83;;
66175;SDS011;52977;44.816;20.538;2023-10-19T10:50:38;11.25;;;4.97;;
66175;SDS011;52977;44.816;20.538;2023-10-19T10:53:05;11.77;;;5.45;;
66175;SDS011;52977;44.816;20.538;2023-10-19T10:55:30;10.20;;;4.63;;
66175;SDS011;52977;44.816;20.538;2023-10-19T10:57:58;8.98;;;4.40;;
66175;SDS011;52977;44.816;20.538;2023-10-19T11:00:25;8.80;;;4.70;;
66175;SDS011;52977;44.816;20.538;2023-10-19T11:03:03;8.77;;;4.55;;
66175;SDS011;52977;44.816;20.538;2023-10-19T11:05:34;9.85;;;5.03;;
66175;SDS011;52977;44.816;20.538;2023-10-19T11:10:32;9.88;;;5.50;;
66175;SDS011;52977;44.816;20.538;2023-10-19T11:13:03;14.13;;;5.03;;
66175;SDS011;52977;44.816;20.538;2023-10-19T11:15:33;8.75;;;3.83;;
66175;SDS011;52977;44.816;20.538;2023-10-19T11:18:00;6.70;;;3.35;;
66175;SDS011;52977;44.816;20.538;2023-10-19T11:20:27;7.80;;;3.60;;
66175;SDS011;52977;44.816;20.538;2023-10-19T11:22:54;10.02;;;4.88;;
66175;SDS011;52977;44.816;20.538;2023-10-19T11:25:26;10.60;;;4.35;;
66175;SDS011;52977;44.816;20.538;2023-10-19T11:27:54;7.82;;;4.57;;
66175;SDS011;52977;44.816;20.538;2023-10-19T11:30:28;7.60;;;4.35;;
66175;SDS011;52977;44.816;20.538;2023-10-19T11:32:55;6.75;;;3.67;;
66175;SDS011;52977;44.816;20.538;2023-10-19T11:35:30;8.65;;;4.10;;
66175;SDS011;52977;44.816;20.538;2023-10-19T11:37:57;10.05;;;4.15;;
66175;SDS011;52977;44.816;20.538;2023-10-19T11:40:26;8.50;;;3.53;;
66175;SDS011;52977;44.816;20.538;2023-10-19T11:42:53;6.90;;;3.60;;
66175;SDS011;52977;44.816;20.538;2023-10-19T11:45:24;5.55;;;3.30;;
66175;SDS011;52977;44.816;20.538;2023-10-19T11:47:50;8.13;;;3.35;;
66175;SDS011;52977;44.816;20.538;2023-10-19T11:50:17;7.57;;;3.30;;
66175;SDS011;52977;44.816;20.538;2023-10-19T11:52:45;5.32;;;3.00;;
66175;SDS011;52977;44.816;20.538;2023-10-19T11:55:12;6.05;;;3.13;;
66175;SDS011;52977;44.816;20.538;2023-10-19T11:57:42;7.32;;;3.53;;
66175;SDS011;52977;44.816;20.538;2023-10-19T12:00:12;6.53;;;3.63;;
66175;SDS011;52977;44.816;20.538;2023-10-19T12:02:49;7.65;;;3.30;;
66175;SDS011;52977;44.816;20.538;2023-10-19T12:05:15;6.65;;;3.35;;
66175;SDS011;52977;44.816;20.538;2023-10-19T12:07:41;6.50;;;3.13;;
66175;SDS011;52977;44.816;20.538;2023-10-19T12:10:10;6.75;;;3.33;;
66175;SDS011;52977;44.816;20.538;2023-10-19T12:12:38;7.90;;;3.50;;
66175;SDS011;52977;44.816;20.538;2023-10-19T12:15:04;8.88;;;3.97;;
66175;SDS011;52977;44.816;20.538;2023-10-19T12:17:31;8.45;;;3.90;;
66175;SDS011;52977;44.816;20.538;2023-10-19T12:19:57;7.28;;;3.58;;
66175;SDS011;52977;44.816;20.538;2023-10-19T12:22:23;8.18;;;3.45;;
66175;SDS011;52977;44.816;20.538;2023-10-19T12:24:53;7.22;;;3.72;;
66175;SDS011;52977;44.816;20.538;2023-10-19T12:27:21;8.65;;;4.32;;
66175;SDS011;52977;44.816;20.538;2023-10-19T12:29:50;7.20;;;3.78;;
66175;SDS011;52977;44.816;20.538;2023-10-19T12:32:21;10.23;;;3.70;;
66175;SDS011;52977;44.816;20.538;2023-10-19T12:34:47;6.53;;;3.40;;
66175;SDS011;52977;44.816;20.538;2023-10-19T12:37:19;7.15;;;3.58;;
66175;SDS011;52977;44.816;20.538;2023-10-19T12:39:45;7.40;;;3.63;;
66175;SDS011;52977;44.816;20.538;2023-10-19T12:42:15;7.25;;;3.92;;
66175;SDS011;52977;44.816;20.538;2023-10-19T12:44:41;7.53;;;3.97;;
66175;SDS011;52977;44.816;20.538;2023-10-19T12:47:09;7.28;;;3.95;;
66175;SDS011;52977;44.816;20.538;2023-10-19T12:49:39;12.80;;;3.83;;
66175;SDS011;52977;44.816;20.538;2023-10-19T12:52:06;6.95;;;4.10;;
66175;SDS011;52977;44.816;20.538;2023-10-19T12:54:34;7.70;;;3.72;;
66175;SDS011;52977;44.816;20.538;2023-10-19T12:57:01;11.15;;;4.50;;
66175;SDS011;52977;44.816;20.538;2023-10-19T12:59:34;15.68;;;4.82;;
66175;SDS011;52977;44.816;20.538;2023-10-19T13:02:03;11.10;;;4.60;;
66175;SDS011;52977;44.816;20.538;2023-10-19T13:04:30;11.13;;;4.70;;
66175;SDS011;52977;44.816;20.538;2023-10-19T13:06:59;10.07;;;4.55;;
66175;SDS011;52977;44.816;20.538;2023-10-19T13:09:25;12.80;;;4.38;;
66175;SDS011;52977;44.816;20.538;2023-10-19T13:11:59;8.48;;;4.03;;
66175;SDS011;52977;44.816;20.538;2023-10-19T13:14:25;8.75;;;4.03;;
66175;SDS011;52977;44.816;20.538;2023-10-19T13:16:54;9.50;;;4.38;;
66175;SDS011;52977;44.816;20.538;2023-10-19T13:19:20;7.63;;;4.03;;
66175;SDS011;52977;44.816;20.538;2023-10-19T13:21:50;9.27;;;4.22;;
66175;SDS011;52977;44.816;20.538;2023-10-19T13:24:18;8.85;;;4.18;;
66175;SDS011;52977;44.816;20.538;2023-10-19T13:26:47;8.70;;;4.05;;
66175;SDS011;52977;44.816;20.538;2023-10-19T13:29:14;10.95;;;4.30;;
66175;SDS011;52977;44.816;20.538;2023-10-19T13:31:43;7.18;;;3.78;;
66175;SDS011;52977;44.816;20.538;2023-10-19T13:34:15;9.80;;;4.50;;
66175;SDS011;52977;44.816;20.538;2023-10-19T13:36:41;12.30;;;4.82;;
66175;SDS011;52977;44.816;20.538;2023-10-19T13:39:10;9.23;;;4.70;;
66175;SDS011;52977;44.816;20.538;2023-10-19T13:41:42;12.70;;;4.72;;
66175;SDS011;52977;44.816;20.538;2023-10-19T13:44:09;9.90;;;4.72;;
66175;SDS011;52977;44.816;20.538;2023-10-19T13:46:38;10.18;;;4.95;;
66175;SDS011;52977;44.816;20.538;2023-10-19T13:49:05;8.63;;;4.20;;
66175;SDS011;52977;44.816;20.538;2023-10-19T13:51:31;7.78;;;4.25;;
66175;SDS011;52977;44.816;20.538;2023-10-19T13:53:57;9.80;;;4.32;;
66175;SDS011;52977;44.816;20.538;2023-10-19T13:56:23;11.50;;;4.25;;
66175;SDS011;52977;44.816;20.538;2023-10-19T13:58:51;9.15;;;4.65;;
66175;SDS011;52977;44.816;20.538;2023-10-19T14:01:17;9.35;;;4.85;;
66175;SDS011;52977;44.816;20.538;2023-10-19T14:03:44;10.38;;;4.25;;
66175;SDS011;52977;44.816;20.538;2023-10-19T14:06:13;9.02;;;4.82;;
66175;SDS011;52977;44.816;20.538;2023-10-19T14:08:40;8.27;;;4.30;;
66175;SDS011;52977;44.816;20.538;2023-10-19T14:11:06;7.70;;;4.13;;
66175;SDS011;52977;44.816;20.538;2023-10-19T14:13:33;6.57;;;3.90;;
66175;SDS011;52977;44.816;20.538;2023-10-19T14:16:04;18.67;;;3.92;;
66175;SDS011;52977;44.816;20.538;2023-10-19T14:20:58;13.13;;;4.32;;
66175;SDS011;52977;44.816;20.538;2023-10-19T14:23:36;9.95;;;4.30;;
66175;SDS011;52977;44.816;20.538;2023-10-19T14:26:05;9.55;;;4.65;;
66175;SDS011;52977;44.816;20.538;2023-10-19T14:28:34;9.45;;;4.68;;
66175;SDS011;52977;44.816;20.538;2023-10-19T14:31:02;7.90;;;4.60;;
66175;SDS011;52977;44.816;20.538;2023-10-19T14:33:30;8.55;;;4.53;;
66175;SDS011;52977;44.816;20.538;2023-10-19T14:35:56;11.80;;;4.35;;
66175;SDS011;52977;44.816;20.538;2023-10-19T14:38:22;12.20;;;5.43;;
66175;SDS011;52977;44.816;20.538;2023-10-19T14:40:51;12.80;;;5.38;;
66175;SDS011;52977;44.816;20.538;2023-10-19T14:43:19;12.32;;;5.28;;
66175;SDS011;52977;44.816;20.538;2023-10-19T14:45:45;10.05;;;5.13;;
66175;SDS011;52977;44.816;20.538;2023-10-19T14:48:11;9.70;;;5.60;;
66175;SDS011;52977;44.816;20.538;2023-10-19T14:50:38;11.85;;;5.03;;
66175;SDS011;52977;44.816;20.538;2023-10-19T14:53:04;12.13;;;6.03;;
66175;SDS011;52977;44.816;20.538;2023-10-19T14:55:30;10.52;;;5.40;;
66175;SDS011;52977;44.816;20.538;2023-10-19T14:57:57;10.80;;;5.63;;
66175;SDS011;52977;44.816;20.538;2023-10-19T15:00:25;12.95;;;5.93;;